createdAt,value
2022-10-19T00:02:57.183Z,-24.2
2022-10-19T00:06:38.390Z,-23.8
2022-10-19T00:17:16.127Z,-23.5
2022-10-19T00:23:50.273Z,-23.8
2022-10-19T00:27:55.125Z,-23.7
2022-10-19T00:33:14.726Z,-24.1
2022-10-19T00:39:48.894Z,-24.3
2022-10-19T00:43:53.005Z,-24.4
2022-10-19T00:49:12.181Z,-23.5
2022-10-19T01:01:05.786Z,-24.2
2022-10-19T01:05:11.189Z,-23.6
2022-10-19T01:15:47.114Z,-24
2022-10-19T01:21:06.642Z,-23.5
2022-10-19T01:26:25.573Z,-23.8
2022-10-19T01:31:44.358Z,-24
2022-10-19T01:37:04.246Z,-23.9
2022-10-19T01:42:23.822Z,-23.9
2022-10-19T01:47:43.287Z,-23.8
2022-10-19T02:04:07.698Z,-24.3
2022-10-19T02:10:41.892Z,-24.1
2022-10-19T02:14:46.966Z,-23.7
2022-10-19T02:20:05.694Z,-23.7
2022-10-19T02:30:43.326Z,-24.1
2022-10-19T02:57:19.719Z,-23.9
2022-10-19T03:02:38.878Z,-24.4
2022-10-19T03:07:57.463Z,-27.9
2022-10-19T03:13:16.888Z,-23.8
2022-10-19T03:18:35.690Z,-23.6
2022-10-19T03:23:54.746Z,-29.1
2022-10-19T03:29:13.389Z,-24
2022-10-19T03:39:51.652Z,-27.1
2022-10-19T03:45:10.669Z,-23.9
2022-10-19T03:59:03.172Z,-24.1
2022-10-19T04:01:09.362Z,-23.5
2022-10-19T04:11:47.847Z,-24.3
2022-10-19T04:22:26.320Z,-23.6
2022-10-19T04:27:45.831Z,-23.3
2022-10-19T04:33:04.615Z,-24.2
2022-10-19T04:38:23.993Z,-24.1
2022-10-19T04:49:02.864Z,-24.2
2022-10-19T04:54:22.225Z,-26.3
2022-10-19T04:59:41.664Z,-24.1
2022-10-19T05:05:00.904Z,-24.2
2022-10-19T05:10:20.487Z,-24
2022-10-19T05:15:40.135Z,-23.6
2022-10-19T05:20:58.989Z,-23.9
2022-10-19T05:31:37.981Z,-23.6
2022-10-19T05:40:11.029Z,-24.4
2022-10-19T05:58:13.190Z,-25.1
2022-10-19T06:03:32.618Z,-24.3
2022-10-19T06:17:25.496Z,-25
2022-10-19T06:21:42.030Z,-18.6
2022-10-19T06:30:07.481Z,-17.5
2022-10-19T06:35:26.488Z,-17.1
2022-10-19T06:42:00.632Z,-14.4
2022-10-19T06:46:17.199Z,-10.1
2022-10-19T06:51:25.888Z,-12.3
2022-10-19T06:56:44.827Z,-4.5
2022-10-19T07:02:04.030Z,1.6
2022-10-19T07:12:43.097Z,3.1
2022-10-19T07:18:02.292Z,4.19
2022-10-19T07:23:21.155Z,7.8
2022-10-19T07:28:40.186Z,14.3
2022-10-19T07:33:59.067Z,19.9
2022-10-19T07:42:32.167Z,11.3
2022-10-19T07:44:36.742Z,37.3
2022-10-19T07:51:35.335Z,34.3
2022-10-19T07:55:15.535Z,47.1
2022-10-19T08:00:34.850Z,35.3
2022-10-19T08:05:54.309Z,16.5
2022-10-19T08:11:12.825Z,19.79
2022-10-19T08:16:32.297Z,27.1
2022-10-19T08:21:51.112Z,33.7
2022-10-19T08:27:10.373Z,37.2
2022-10-19T08:33:44.547Z,43.4
2022-10-19T08:37:50.425Z,27.7
2022-10-19T08:55:25.548Z,38
2022-10-19T09:04:25.249Z,38.7
2022-10-19T09:09:44.311Z,48.4
2022-10-19T09:20:21.429Z,53
2022-10-19T09:25:40.234Z,69
2022-10-19T09:36:23.001Z,64.8
2022-10-19T09:41:38.402Z,68.19
2022-10-19T09:46:56.480Z,73.1
2022-10-19T09:52:16.170Z,65.4
2022-10-19T09:57:35.026Z,63.2
2022-10-19T10:02:54.383Z,64.6
2022-10-19T10:08:14.149Z,62.2
2022-10-19T10:18:53.647Z,82.5
2022-10-19T10:24:13.358Z,79.4
2022-10-19T10:29:32.277Z,84.1
2022-10-19T10:34:53.955Z,90.9
2022-10-19T10:40:10.863Z,87.7
2022-10-19T10:45:30.100Z,74.1
2022-10-19T10:50:49.030Z,71.9
2022-10-19T11:01:38.706Z,86.2
2022-10-19T11:12:06.221Z,89.3
2022-10-19T11:17:25.373Z,82.2
2022-10-19T11:22:43.405Z,82.1
2022-10-19T11:29:41.965Z,86.7
2022-10-19T11:33:23.344Z,88.7
2022-10-19T11:38:42.188Z,86.6
2022-10-19T11:44:00.648Z,75.19
2022-10-19T11:54:38.558Z,77.1
2022-10-19T12:00:00.337Z,73.1
2022-10-19T12:05:16.798Z,66.4
2022-10-19T12:10:35.618Z,56.8
2022-10-19T12:15:55.561Z,56.9
2022-10-19T12:21:14.923Z,51.2
2022-10-19T12:26:33.777Z,41.4
2022-10-19T12:37:13.102Z,57.4
2022-10-19T12:42:32.193Z,47
2022-10-19T12:53:10.215Z,40.2
2022-10-19T12:58:28.965Z,35.5
2022-10-19T13:03:47.333Z,45.1
2022-10-19T13:09:06.547Z,27.3
2022-10-19T13:19:44.415Z,27.5
2022-10-19T13:25:05.810Z,28.6
2022-10-19T13:35:43.987Z,17
2022-10-19T13:41:02.554Z,18.2
2022-10-19T13:46:22.943Z,7.6
2022-10-19T13:51:41.145Z,4.3
2022-10-19T14:02:20.150Z,22.8
2022-10-19T14:07:38.983Z,27.1
2022-10-19T14:18:19.408Z,34.3
2022-10-19T14:23:37.996Z,-24
2022-10-19T14:34:16.856Z,-24.1
2022-10-19T14:39:36.227Z,51.3
2022-10-19T14:46:34.824Z,41.9
2022-10-19T14:50:15.783Z,45.3
2022-10-19T15:00:53.104Z,20.29
2022-10-19T15:06:12.470Z,9.8
2022-10-19T15:18:05.732Z,-4.69
2022-10-19T15:22:08.733Z,-10.8
2022-10-19T15:27:28.958Z,-15.6
2022-10-19T15:32:48.701Z,-16.5
2022-10-19T15:38:07.491Z,-14.9
2022-10-19T15:43:26.618Z,-17.79
2022-10-19T15:48:44.878Z,-19.2
2022-10-19T15:59:24.206Z,-15.6
2022-10-19T16:04:43.740Z,-14.4
2022-10-19T16:15:22.355Z,-24.3
2022-10-19T16:26:00.539Z,-24.2
2022-10-19T16:31:19.527Z,-23.6
2022-10-19T16:41:58.527Z,-23.6
2022-10-19T16:47:16.899Z,-23.3
2022-10-19T16:57:55.795Z,-24.3
2022-10-19T17:04:29.999Z,-23.9
2022-10-19T17:08:36.813Z,-24.2
2022-10-19T17:13:52.870Z,-23.7
2022-10-19T17:24:30.457Z,-24.1
2022-10-19T17:29:50.496Z,-23.6
2022-10-19T17:40:28.739Z,-23.7
2022-10-19T17:45:47.838Z,-23.7
2022-10-19T17:51:07.335Z,-24.1
2022-10-19T18:01:45.713Z,-24.2
2022-10-19T18:07:03.728Z,-23.3
2022-10-19T18:17:42.009Z,-23.7
2022-10-19T18:23:01.659Z,-25.3
2022-10-19T18:28:20.422Z,-23.4
2022-10-19T18:33:40.066Z,-23.5
2022-10-19T18:38:58.986Z,-23.7
2022-10-19T18:44:22.006Z,-24.1
2022-10-19T18:49:38.355Z,-23.7
2022-10-19T19:00:17.454Z,-23.4
2022-10-19T19:05:36.987Z,-22.9
2022-10-19T19:10:56.023Z,-22.9
2022-10-19T19:16:15.193Z,-23.5
2022-10-19T19:28:34.562Z,-28.3
2022-10-19T19:32:15.159Z,-23.6
2022-10-19T19:42:53.456Z,-23.5
2022-10-19T19:48:12.664Z,-23.3
2022-10-19T19:59:19.239Z,-23.3
2022-10-19T20:04:38.476Z,-25.4
2022-10-19T20:15:16.774Z,-23.5
2022-10-19T20:20:34.739Z,-24
2022-10-19T20:31:13.258Z,-24.4
2022-10-19T20:43:06.803Z,-24.1
2022-10-19T20:47:13.060Z,-27.9
2022-10-19T20:52:31.066Z,-23.5
2022-10-19T20:57:50.318Z,-23.8
2022-10-19T21:03:09.859Z,-23.4
2022-10-19T21:13:48.124Z,-23.6
2022-10-19T21:19:07.732Z,-24
2022-10-19T21:24:27.295Z,-23.7
2022-10-19T21:29:46.792Z,-23.5
2022-10-19T21:40:25.707Z,-23.1
2022-10-19T21:45:44.653Z,-23.4
2022-10-19T21:52:18.814Z,-24
2022-10-19T21:56:24.371Z,-23.5
2022-10-19T22:01:43.805Z,-23.3
2022-10-19T22:07:01.666Z,-23.6
2022-10-19T22:12:20.559Z,-23.5
2022-10-19T22:17:39.514Z,-23
2022-10-19T22:22:59.162Z,-23.7
2022-10-19T22:28:18.446Z,-23.7
2022-10-19T22:38:57.194Z,-26
2022-10-19T22:44:16.684Z,-23.5
2022-10-19T22:54:54.751Z,-23.6
2022-10-19T23:00:14.167Z,-23.2
2022-10-19T23:05:34.201Z,-24.1
2022-10-19T23:10:53.349Z,-23.3
2022-10-19T23:21:31.825Z,-23.5
2022-10-19T23:26:51.359Z,-23.5
2022-10-19T23:32:10.424Z,-24.1
2022-10-19T23:37:29.526Z,-22.9
2022-10-19T23:42:48.939Z,-23.4
2022-10-19T23:48:07.889Z,-23.6
2022-10-19T23:53:27.252Z,-22.9
